Harare, Zimbabwe

4:18 PM CAT on September 22, 2014 (GMT +0200)
Harare International | Change Station
CLOSE
Current Station
Airport
Location: Harare Kutsaga,
Elevation: 4856 ft
Nearby Weather Stations

Elev 4856 ft 17.92 °S, 31.13 °E | Updated 18 minutes ago

Clear
Clear
77 °F
Feels Like 77 °F
N
10
Wind Variable Wind from ENE

Today
High -- | Low -- °F
--% Chance of Precip.
Yesterday
High -- | Low -- °F
Precip. -- in
5:45 AM 5:51 PM
Waning Crescent, 3% visible
Pressure 30.24 in
Visibility -9999.0 miles
Clouds
Dew Point 46 °F
Humidity 34%
Rainfall 0.00 in
Snow Depth Not available.
UV Not available.
Pollen Not available.
Air Quality Not available.
Flu Activity Not available.
METAR FVHA 221400Z 07009KT 030V090 CAVOK 25/08 Q1024 NOSIG

More Conditions Fewer Conditions

Pressure 30.24 in
Visibility -9999.0 miles
Clouds
Dew Point 46 °F
Humidity 34%
Rainfall 0.00 in
Snow Depth Not available.
UV Not available.
Pollen Not available.
Air Quality Not available.
Flu Activity Not available.
METAR FVHA 221400Z 07009KT 030V090 CAVOK 25/08 Q1024 NOSIG

More Conditions Fewer Conditions

10-Day Weather Forecast

Almanac

Astronomy

Sep. 22, 2014 Rise Set
Actual Time 5:45 AM CAT 5:51 PM CAT
Civil Twilight 5:24 AM CAT 6:13 PM CAT
Nautical Twilight 4:58 AM CAT 6:38 PM CAT
Astronomical Twilight 4:33 AM CAT 7:04 PM CAT
Moon 4:23 AM CAT 4:30 PM CAT
Length of Visible Light 12h 49m
Length of Day
12h 06m
Tomorrow will be 1m 0s longer.
Waning Crescent, 3% of the Moon is Illuminated
Today
Waning Crescent
Sep 24
New
Oct 1
First Quarter
Oct 8
Full
Oct 15
Last Quarter

Yesterday's Extremes

Country Highs Country Lows

Community

WunderPhotos

Upload Photos

1,755,444 photos uploaded!

WunderBlogs® & News

By Dr. Jeff Masters
Director of Meteorology, Weather Underground
By Kari Strenfel
Meteorologist, Weather Underground
By Christopher C. Burt
Weather Historian, Weather Underground
September 22, 2014
September 22, 2014
September 22, 2014

Nearby

Snow Depth

Not available.

Earthquake Activity

City Distance Mag. Time & Date
No recent earthquake activity has been reported nearby.
Minimum magnitude displayed is 2.5.

Coastal Water Temperatures

Place Temperature
No Stations Reporting

Nearby Weather Stations